Time;durP1;ratioP1;P1;durP2;ratioP2;P2;SDS_P1;SDS_P2;PMS_P1;PMS_P2;Temp;Humidity;BMP_temperature;BMP_pressure;BME280_temperature;BME280_humidity;BME280_pressure;Samples;Min_cycle;Max_cycle;Signal;HPM_P1;HPM_P2
2021/08/13 00:01:06;;;;;;;0.60;0.60;;;26.60;57.50;;;;;;5031959;28;20029;-80
2021/08/13 00:03:32;;;;;;;0.50;0.50;;;26.40;57.70;;;;;;5031415;28;20026;-79
2021/08/13 00:05:58;;;;;;;0.80;0.80;;;26.40;58.00;;;;;;5031884;28;20022;-80
2021/08/13 00:08:23;;;;;;;0.65;0.65;;;26.40;57.90;;;;;;5031586;28;20021;-82
2021/08/13 00:10:50;;;;;;;0.50;0.50;;;26.50;57.80;;;;;;5031643;28;20501;-81
2021/08/13 00:13:16;;;;;;;1.45;1.35;;;26.50;57.70;;;;;;5031554;28;20014;-79
2021/08/13 00:15:42;;;;;;;0.77;0.75;;;26.40;58.10;;;;;;5032014;28;20403;-78
2021/08/13 00:18:08;;;;;;;0.50;0.50;;;26.30;58.00;;;;;;5030953;28;20573;-81
2021/08/13 00:20:35;;;;;;;0.60;0.60;;;26.40;58.00;;;;;;5031216;28;20063;-81
2021/08/13 00:23:01;;;;;;;1.40;0.73;;;26.40;58.40;;;;;;5013579;28;20036;-77
2021/08/13 00:25:27;;;;;;;0.60;0.60;;;26.30;58.00;;;;;;5031600;28;20025;-80
2021/08/13 00:27:56;;;;;;;0.63;0.63;;;26.30;58.40;;;;;;5030926;28;20122;-74
2021/08/13 00:30:22;;;;;;;0.50;0.50;;;26.40;58.00;;;;;;5031365;28;20026;-75
2021/08/13 00:32:48;;;;;;;0.55;0.55;;;26.50;59.10;;;;;;5030915;28;20124;-78
2021/08/13 00:35:13;;;;;;;0.50;0.50;;;26.10;59.60;;;;;;5031358;28;20029;-80
2021/08/13 00:37:39;;;;;;;1.13;1.02;;;26.40;60.30;;;;;;5030923;28;20032;-79
2021/08/13 00:40:06;;;;;;;0.82;0.82;;;26.50;60.20;;;;;;5030816;28;20037;-76
2021/08/13 00:42:32;;;;;;;1.98;1.25;;;26.50;60.50;;;;;;5030621;28;20075;-76
2021/08/13 00:44:58;;;;;;;0.63;0.63;;;26.40;59.80;;;;;;5031314;28;20048;-78
2021/08/13 00:47:24;;;;;;;0.60;0.60;;;26.20;60.40;;;;;;5030796;28;20493;-80
2021/08/13 00:49:50;;;;;;;1.73;1.48;;;26.40;60.00;;;;;;5030735;28;20100;-80
2021/08/13 00:52:17;;;;;;;1.25;1.15;;;26.50;60.80;;;;;;5031207;28;20026;-80
2021/08/13 00:54:43;;;;;;;0.60;0.60;;;26.40;60.00;;;;;;5031186;28;20022;-81
2021/08/13 00:57:08;;;;;;;0.90;0.90;;;26.30;59.70;;;;;;5030871;28;20104;-80
2021/08/13 00:59:37;;;;;;;0.50;0.50;;;26.40;59.80;;;;;;5030807;28;20067;-79
2021/08/13 01:02:03;;;;;;;0.73;0.73;;;26.30;60.00;;;;;;5013677;28;20033;-80
2021/08/13 01:04:29;;;;;;;1.27;1.17;;;26.20;60.40;;;;;;5030692;28;20072;-82
2021/08/13 01:06:55;;;;;;;0.70;0.70;;;25.90;61.30;;;;;;5031088;28;20057;-82
2021/08/13 01:09:21;;;;;;;0.98;0.98;;;25.80;61.60;;;;;;5030659;28;20523;-76
2021/08/13 01:12:12;;;;;;;0.63;0.63;;;25.80;62.20;;;;;;5030634;28;20393;-77
2021/08/13 01:14:50;;;;;;;1.30;1.20;;;25.80;62.70;;;;;;5034659;28;20378;-80
2021/08/13 01:17:22;;;;;;;0.52;0.52;;;25.70;62.20;;;;;;5034887;28;20025;-77
2021/08/13 01:20:15;;;;;;;1.55;1.40;;;25.70;62.60;;;;;;5017225;28;20033;-80
2021/08/13 01:23:01;;;;;;;0.60;0.60;;;25.70;62.40;;;;;;5034361;28;20022;-78
2021/08/13 01:25:31;;;;;;;0.60;0.60;;;25.70;62.30;;;;;;5034903;28;20087;-78
2021/08/13 01:28:03;;;;;;;1.52;1.42;;;25.70;61.80;;;;;;5034771;28;20025;-74
2021/08/13 01:30:32;;;;;;;0.82;0.82;;;25.70;62.10;;;;;;5034838;28;20060;-80
2021/08/13 01:33:11;;;;;;;0.88;0.85;;;25.70;62.20;;;;;;5034057;28;20029;-77
2021/08/13 01:35:40;;;;;;;0.65;0.65;;;25.80;62.50;;;;;;5034553;28;20564;-79
2021/08/13 01:38:17;;;;;;;0.80;0.80;;;25.90;61.80;;;;;;5016698;28;20029;-80
2021/08/13 01:40:47;;;;;;;0.63;0.63;;;25.80;62.30;;;;;;5034654;28;20029;-80
2021/08/13 01:43:14;;;;;;;1.35;1.10;;;25.80;61.80;;;;;;5034039;28;20028;-80
2021/08/13 01:45:42;;;;;;;0.70;0.70;;;25.80;62.10;;;;;;5034467;28;20033;-80
2021/08/13 01:48:09;;;;;;;0.80;0.80;;;25.90;62.80;;;;;;5016565;28;20060;-80
2021/08/13 01:50:35;;;;;;;0.80;0.80;;;25.90;63.00;;;;;;5016101;28;20072;-81
2021/08/13 01:53:02;;;;;;;0.88;0.88;;;25.90;63.00;;;;;;5033985;28;20053;-80
2021/08/13 01:55:30;;;;;;;0.93;0.80;;;25.90;62.70;;;;;;5016779;28;20032;-79
2021/08/13 01:57:56;;;;;;;1.58;1.48;;;25.50;64.00;;;;;;5034217;28;20112;-80
2021/08/13 02:00:23;;;;;;;0.90;0.90;;;25.60;64.50;;;;;;5034048;28;20116;-79
2021/08/13 02:02:51;;;;;;;0.60;0.60;;;25.70;63.40;;;;;;5034123;28;20116;-80
2021/08/13 02:05:20;;;;;;;1.13;1.02;;;25.70;62.00;;;;;;5016527;28;20029;-79
2021/08/13 02:07:48;;;;;;;0.60;0.60;;;25.50;63.70;;;;;;5033527;28;20021;-78
2021/08/13 02:10:13;;;;;;;0.77;0.77;;;25.60;64.10;;;;;;5033390;28;20045;-79
2021/08/13 02:12:39;;;;;;;1.25;1.10;;;25.70;63.90;;;;;;5033654;28;20031;-78
2021/08/13 02:15:07;;;;;;;0.50;0.50;;;25.30;63.30;;;;;;5034073;28;20029;-79
2021/08/13 02:17:39;;;;;;;0.50;0.50;;;25.00;63.10;;;;;;5033560;28;20029;-76
2021/08/13 02:20:14;;;;;;;0.75;0.75;;;25.10;64.30;;;;;;5033367;28;20033;-78
2021/08/13 02:22:40;;;;;;;0.60;0.60;;;25.20;63.50;;;;;;5033400;28;20103;-74
2021/08/13 02:25:07;;;;;;;0.60;0.60;;;25.40;63.90;;;;;;5033481;28;20033;-79
2021/08/13 02:27:33;;;;;;;0.95;0.90;;;25.50;63.50;;;;;;5032946;28;20021;-78
2021/08/13 02:29:59;;;;;;;1.13;1.00;;;25.70;63.80;;;;;;5033686;28;20025;-77
2021/08/13 02:32:26;;;;;;;0.60;0.60;;;25.70;64.10;;;;;;5033535;28;20029;-78
2021/08/13 02:34:52;;;;;;;0.93;0.93;;;25.60;63.70;;;;;;5033635;28;20029;-76
2021/08/13 02:37:34;;;;;;;1.08;1.02;;;25.50;63.90;;;;;;5032997;28;20026;-74
2021/08/13 02:40:13;;;;;;;1.42;1.33;;;25.50;64.00;;;;;;5033292;28;20041;-77
2021/08/13 02:42:45;;;;;;;0.60;0.60;;;25.40;63.90;;;;;;5033282;28;20025;-75
2021/08/13 02:45:17;;;;;;;1.23;1.10;;;25.30;64.70;;;;;;5033646;28;20029;-74
2021/08/13 02:47:46;;;;;;;0.70;0.70;;;25.30;65.70;;;;;;5032436;28;20468;-76
2021/08/13 02:50:13;;;;;;;0.82;0.82;;;25.30;65.50;;;;;;5033143;28;20401;-76
2021/08/13 02:53:05;;;;;;;1.30;1.20;;;25.40;65.70;;;;;;5032928;28;20028;-75
2021/08/13 02:55:40;;;;;;;2.47;1.48;;;25.40;65.60;;;;;;5019867;28;20069;-74
2021/08/13 02:58:10;;;;;;;0.70;0.70;;;25.40;65.30;;;;;;5032660;28;20021;-75
2021/08/13 03:00:40;;;;;;;0.80;0.80;;;25.50;65.30;;;;;;5032878;28;20449;-76
2021/08/13 03:03:06;;;;;;;0.93;0.90;;;25.10;65.50;;;;;;5033154;28;20066;-77
2021/08/13 03:05:35;;;;;;;0.60;0.60;;;25.30;65.50;;;;;;5032681;28;20381;-78
2021/08/13 03:08:01;;;;;;;0.95;0.95;;;25.30;65.60;;;;;;5032422;28;20104;-79
2021/08/13 03:10:29;;;;;;;0.73;0.73;;;25.30;66.10;;;;;;5032554;28;20042;-77
2021/08/13 03:12:55;;;;;;;0.98;0.90;;;25.20;66.80;;;;;;5032618;28;20701;-75
2021/08/13 03:15:21;;;;;;;0.95;0.95;;;25.00;65.70;;;;;;5032990;28;20029;-76
2021/08/13 03:17:49;;;;;;;0.80;0.80;;;24.80;65.50;;;;;;5014695;28;20029;-77
2021/08/13 03:20:15;;;;;;;0.70;0.70;;;25.00;65.00;;;;;;5014673;28;20540;-77
2021/08/13 03:22:42;;;;;;;0.70;0.70;;;24.30;65.80;;;;;;5014253;28;20045;-75
2021/08/13 03:25:08;;;;;;;1.55;1.45;;;24.60;65.70;;;;;;5032478;28;20076;-76
2021/08/13 03:27:34;;;;;;;1.63;0.90;;;24.80;66.10;;;;;;5031897;28;20465;-75
2021/08/13 03:30:00;;;;;;;1.35;1.25;;;25.00;65.20;;;;;;5032270;28;20481;-76
2021/08/13 03:32:26;;;;;;;0.73;0.73;;;25.20;65.50;;;;;;5032162;28;20087;-76
2021/08/13 03:34:52;;;;;;;0.80;0.80;;;25.20;66.00;;;;;;5031515;28;20041;-76
2021/08/13 03:37:18;;;;;;;2.67;2.15;;;25.20;66.40;;;;;;5031826;28;20014;-79
2021/08/13 03:39:44;;;;;;;0.93;0.93;;;25.10;65.80;;;;;;5031746;28;20040;-77
2021/08/13 03:42:09;;;;;;;0.60;0.60;;;25.10;66.30;;;;;;5031984;28;20093;-76
2021/08/13 03:44:35;;;;;;;1.65;1.55;;;25.10;65.40;;;;;;5031697;28;20401;-77
2021/08/13 03:47:01;;;;;;;4.80;1.58;;;25.10;65.60;;;;;;5032167;28;20064;-76
2021/08/13 03:49:27;;;;;;;0.80;0.80;;;25.10;66.40;;;;;;5031654;28;20033;-79
2021/08/13 03:51:56;;;;;;;0.73;0.73;;;25.00;66.20;;;;;;5031625;28;20021;-78
2021/08/13 03:54:22;;;;;;;0.70;0.70;;;25.00;65.80;;;;;;5032295;28;20026;-77
2021/08/13 03:56:48;;;;;;;0.73;0.73;;;25.00;66.10;;;;;;5031961;28;20405;-79
2021/08/13 03:59:13;;;;;;;0.85;0.85;;;24.60;65.00;;;;;;5013696;28;20029;-79
2021/08/13 04:01:39;;;;;;;0.93;0.90;;;24.60;66.20;;;;;;5031903;28;20030;-78
2021/08/13 04:04:05;;;;;;;0.75;0.75;;;24.80;65.60;;;;;;5031580;28;20164;-77
2021/08/13 04:06:31;;;;;;;0.60;0.60;;;24.80;65.20;;;;;;5031791;28;20032;-78
2021/08/13 04:08:57;;;;;;;1.10;1.08;;;24.40;65.60;;;;;;5031270;28;20036;-74
2021/08/13 04:11:24;;;;;;;0.70;0.70;;;24.00;66.60;;;;;;5031313;28;20057;-74
2021/08/13 04:13:49;;;;;;;0.88;0.80;;;24.50;66.80;;;;;;5031583;28;20052;-76
2021/08/13 04:16:15;;;;;;;0.98;0.98;;;24.40;66.10;;;;;;5013653;28;20112;-75
2021/08/13 04:18:41;;;;;;;1.73;0.95;;;24.20;66.60;;;;;;5013438;28;20029;-76
2021/08/13 04:21:07;;;;;;;1.95;1.70;;;23.80;67.60;;;;;;5031477;28;20048;-76
2021/08/13 04:23:33;;;;;;;0.98;0.98;;;23.70;67.90;;;;;;5031190;28;20040;-75
2021/08/13 04:25:58;;;;;;;1.38;1.27;;;23.70;68.00;;;;;;5031405;28;20422;-75
2021/08/13 04:28:24;;;;;;;0.80;0.80;;;23.70;68.10;;;;;;5031251;28;20071;-77
2021/08/13 04:30:50;;;;;;;3.20;1.35;;;24.00;67.40;;;;;;5014042;28;20125;-76
2021/08/13 04:33:16;;;;;;;12.90;1.08;;;24.00;67.00;;;;;;5031094;28;20397;-77
2021/08/13 04:35:42;;;;;;;1.98;1.33;;;23.90;67.00;;;;;;5031341;28;20068;-77
2021/08/13 04:38:07;;;;;;;0.95;0.95;;;24.20;67.20;;;;;;5012644;28;20700;-76
2021/08/13 04:40:34;;;;;;;2.60;1.35;;;24.20;67.00;;;;;;5031441;28;20116;-76
2021/08/13 04:42:59;;;;;;;0.70;0.70;;;24.60;66.00;;;;;;5031183;28;20018;-77
2021/08/13 04:45:25;;;;;;;0.77;0.77;;;24.90;65.60;;;;;;5031598;28;20091;-77
2021/08/13 04:47:51;;;;;;;0.70;0.70;;;25.10;65.70;;;;;;5030635;28;20366;-78
2021/08/13 04:50:17;;;;;;;1.35;1.25;;;24.90;65.40;;;;;;5031294;28;20567;-76
2021/08/13 04:52:49;;;;;;;1.40;1.30;;;25.20;66.70;;;;;;5030590;28;20500;-78
2021/08/13 04:55:22;;;;;;;1.05;1.00;;;25.20;66.70;;;;;;5030941;28;20465;-75
2021/08/13 04:57:48;;;;;;;0.60;0.60;;;24.60;66.00;;;;;;5031191;28;20424;-76
2021/08/13 05:00:14;;;;;;;0.60;0.60;;;25.10;65.50;;;;;;5030975;28;20456;-75
2021/08/13 05:02:40;;;;;;;0.95;0.95;;;25.30;65.30;;;;;;5030867;28;20026;-75
2021/08/13 05:05:07;;;;;;;0.90;0.90;;;25.40;66.70;;;;;;5030969;28;20032;-74
2021/08/13 05:07:33;;;;;;;2.13;1.92;;;25.40;66.70;;;;;;5030927;28;20022;-76
2021/08/13 05:10:09;;;;;;;2.25;2.05;;;25.50;66.80;;;;;;5030796;28;20420;-75
2021/08/13 05:12:36;;;;;;;5.80;4.05;;;25.40;65.40;;;;;;5030751;28;20068;-74
2021/08/13 05:15:02;;;;;;;4.72;4.22;;;25.60;64.60;;;;;;5013287;28;20359;-76
2021/08/13 05:17:27;;;;;;;2.50;2.30;;;25.50;65.30;;;;;;5030925;28;20021;-78
2021/08/13 05:19:53;;;;;;;4.13;3.13;;;25.10;65.50;;;;;;5030727;28;20047;-74
2021/08/13 05:22:19;;;;;;;1.92;1.60;;;25.50;65.40;;;;;;5030440;28;20106;-78
2021/08/13 05:24:44;;;;;;;1.23;1.13;;;25.60;65.70;;;;;;5030943;28;20025;-75
2021/08/13 05:27:10;;;;;;;1.15;1.05;;;25.50;64.60;;;;;;5030866;28;20025;-78
2021/08/13 05:29:36;;;;;;;1.25;1.15;;;25.40;65.20;;;;;;5030636;28;20036;-76
2021/08/13 05:32:02;;;;;;;1.08;1.05;;;25.20;64.90;;;;;;5030680;28;20167;-78
2021/08/13 05:34:28;;;;;;;0.60;0.60;;;25.20;65.40;;;;;;5030193;28;20037;-78
2021/08/13 05:36:53;;;;;;;0.65;0.65;;;25.00;65.60;;;;;;5030446;28;20026;-77
2021/08/13 05:39:19;;;;;;;1.48;1.33;;;25.10;65.80;;;;;;5030310;28;20045;-73
2021/08/13 05:41:45;;;;;;;1.58;1.27;;;24.90;65.70;;;;;;5030829;28;20049;-79
2021/08/13 05:44:10;;;;;;;0.65;0.65;;;24.80;66.30;;;;;;5030074;28;20059;-76
2021/08/13 05:46:36;;;;;;;0.75;0.75;;;24.90;66.40;;;;;;5012399;28;20108;-78
2021/08/13 05:49:02;;;;;;;0.80;0.80;;;24.90;65.70;;;;;;5030569;28;20022;-74
2021/08/13 05:51:28;;;;;;;0.70;0.70;;;24.90;66.00;;;;;;5030547;28;20481;-78
2021/08/13 05:53:53;;;;;;;0.88;0.88;;;25.00;64.80;;;;;;5029884;28;20113;-78
2021/08/13 05:56:19;;;;;;;0.60;0.60;;;25.20;65.00;;;;;;5030565;28;20108;-77
2021/08/13 05:58:45;;;;;;;1.27;1.15;;;25.40;64.60;;;;;;5031536;28;20025;-76
2021/08/13 06:01:11;;;;;;;0.60;0.60;;;25.50;64.20;;;;;;5034853;28;20105;-78
2021/08/13 06:03:37;;;;;;;0.70;0.70;;;25.50;64.50;;;;;;5033770;28;20115;-76
2021/08/13 06:06:02;;;;;;;0.60;0.60;;;25.60;64.10;;;;;;5034144;28;20029;-80
2021/08/13 06:08:28;;;;;;;1.17;1.08;;;25.90;63.60;;;;;;5033814;28;20045;-77
2021/08/13 06:10:54;;;;;;;0.60;0.60;;;25.80;63.40;;;;;;5033458;28;20054;-77
2021/08/13 06:13:20;;;;;;;0.75;0.75;;;25.90;63.40;;;;;;5033485;28;20022;-77
2021/08/13 06:15:46;;;;;;;0.98;0.98;;;25.80;63.50;;;;;;5034204;28;20029;-77
2021/08/13 06:18:12;;;;;;;0.50;0.50;;;25.90;62.90;;;;;;5015606;28;20033;-80
2021/08/13 06:20:38;;;;;;;0.55;0.55;;;26.20;62.60;;;;;;5015842;28;20400;-78
2021/08/13 06:23:04;;;;;;;1.33;1.20;;;26.40;62.30;;;;;;5033558;28;20414;-78
2021/08/13 06:25:30;;;;;;;1.20;1.10;;;26.10;62.50;;;;;;5033559;28;20473;-76
2021/08/13 06:27:56;;;;;;;0.95;0.88;;;26.10;61.70;;;;;;5033765;28;20025;-77
2021/08/13 06:30:23;;;;;;;0.52;0.52;;;26.00;61.60;;;;;;5033685;28;20029;-78
2021/08/13 06:32:50;;;;;;;0.50;0.50;;;25.80;62.30;;;;;;5033658;28;20032;-79
2021/08/13 06:35:16;;;;;;;1.25;1.15;;;25.90;63.00;;;;;;5015997;28;20535;-78
2021/08/13 06:37:44;;;;;;;0.65;0.65;;;26.00;62.80;;;;;;5033498;28;20038;-77
2021/08/13 06:40:10;;;;;;;0.70;0.70;;;26.00;61.80;;;;;;5015733;28;20083;-80
2021/08/13 06:42:36;;;;;;;0.70;0.70;;;26.10;61.90;;;;;;5033638;28;20034;-79
2021/08/13 06:45:02;;;;;;;1.40;1.30;;;26.10;62.10;;;;;;5033445;28;20040;-77
2021/08/13 06:47:28;;;;;;;0.55;0.55;;;26.40;61.90;;;;;;5013626;28;20378;-78
2021/08/13 06:49:54;;;;;;;0.70;0.70;;;26.40;62.10;;;;;;5013492;28;20481;-77
2021/08/13 06:52:19;;;;;;;0.80;0.80;;;26.70;61.70;;;;;;5013621;28;20097;-77
2021/08/13 06:54:45;;;;;;;0.77;0.77;;;26.70;60.90;;;;;;5013823;28;20109;-78
2021/08/13 06:57:11;;;;;;;0.57;0.57;;;26.60;61.50;;;;;;5013126;28;20497;-78
2021/08/13 06:59:37;;;;;;;0.90;0.80;;;26.50;61.20;;;;;;5013501;28;20044;-78
2021/08/13 07:02:03;;;;;;;1.08;1.05;;;26.60;61.20;;;;;;5013270;28;20100;-76
2021/08/13 07:04:29;;;;;;;0.65;0.65;;;26.70;62.20;;;;;;5013042;28;20092;-77
2021/08/13 07:06:55;;;;;;;0.60;0.60;;;26.70;61.10;;;;;;5013295;28;20026;-78
2021/08/13 07:09:20;;;;;;;0.50;0.50;;;26.70;61.00;;;;;;5013154;28;20026;-77
2021/08/13 07:11:46;;;;;;;0.60;0.60;;;26.70;60.60;;;;;;5012665;28;20123;-75
2021/08/13 07:14:12;;;;;;;0.60;0.60;;;26.80;61.00;;;;;;5013206;28;20540;-80
2021/08/13 07:16:37;;;;;;;0.70;0.70;;;26.80;59.90;;;;;;5013155;28;20462;-76
2021/08/13 07:19:03;;;;;;;0.70;0.70;;;26.90;60.30;;;;;;5012493;28;20057;-77
2021/08/13 07:21:29;;;;;;;0.70;0.70;;;27.10;59.90;;;;;;5013324;28;20030;-77
2021/08/13 07:23:54;;;;;;;0.70;0.70;;;27.20;59.40;;;;;;4995566;28;20029;-75
2021/08/13 07:26:20;;;;;;;0.70;0.70;;;27.20;59.10;;;;;;5012830;28;20385;-77
2021/08/13 07:28:46;;;;;;;1.48;0.90;;;27.20;59.00;;;;;;5012481;28;20474;-75
2021/08/13 07:31:12;;;;;;;7.47;1.23;;;27.50;59.50;;;;;;5013233;28;20026;-78
2021/08/13 07:33:37;;;;;;;0.85;0.82;;;27.50;59.60;;;;;;5012512;28;20033;-75
2021/08/13 07:36:03;;;;;;;0.75;0.75;;;27.60;59.40;;;;;;4994740;28;20124;-76
2021/08/13 07:38:33;;;;;;;1.17;0.70;;;27.70;58.30;;;;;;5012869;28;20026;-75
2021/08/13 07:40:59;;;;;;;1.02;0.80;;;27.90;58.40;;;;;;5012384;28;20084;-75
2021/08/13 07:43:25;;;;;;;0.40;0.40;;;27.90;57.50;;;;;;5012329;28;20030;-76
2021/08/13 07:45:50;;;;;;;0.40;0.40;;;28.00;57.80;;;;;;5000068;28;20079;-77
2021/08/13 07:48:16;;;;;;;0.80;0.80;;;28.10;57.70;;;;;;5032237;28;20026;-76
2021/08/13 07:50:42;;;;;;;0.60;0.60;;;28.10;57.40;;;;;;5031832;28;20260;-76
2021/08/13 07:53:07;;;;;;;10.18;1.40;;;28.20;57.60;;;;;;5032324;28;20100;-78
2021/08/13 07:55:33;;;;;;;0.63;0.60;;;28.20;57.10;;;;;;5032108;28;20026;-79
2021/08/13 07:57:59;;;;;;;0.70;0.70;;;28.30;56.70;;;;;;5031927;28;20048;-79
2021/08/13 08:00:25;;;;;;;0.45;0.45;;;28.40;56.20;;;;;;5031833;28;20466;-78
2021/08/13 08:02:51;;;;;;;0.63;0.63;;;28.40;55.70;;;;;;5014086;28;20386;-79
2021/08/13 08:05:17;;;;;;;0.40;0.40;;;28.40;55.70;;;;;;5014401;28;20500;-79
2021/08/13 08:07:43;;;;;;;0.98;0.93;;;28.40;56.40;;;;;;5031786;28;20541;-79
2021/08/13 08:10:09;;;;;;;0.40;0.40;;;28.40;56.50;;;;;;5013797;28;20648;-79
2021/08/13 08:12:35;;;;;;;0.30;0.30;;;28.50;56.20;;;;;;5031771;28;20036;-78
2021/08/13 08:15:01;;;;;;;0.50;0.50;;;28.60;56.00;;;;;;5031394;28;20041;-78
2021/08/13 08:17:26;;;;;;;0.40;0.40;;;28.50;56.40;;;;;;5031435;28;20041;-77
2021/08/13 08:19:52;;;;;;;1.00;0.82;;;28.60;56.10;;;;;;5014002;28;20128;-78
2021/08/13 08:22:18;;;;;;;0.45;0.45;;;28.70;56.00;;;;;;5031058;28;20061;-78
2021/08/13 08:24:43;;;;;;;0.60;0.60;;;28.80;55.70;;;;;;5031643;28;20034;-78
2021/08/13 08:27:09;;;;;;;19.00;1.23;;;28.90;56.00;;;;;;5031410;28;20018;-78
2021/08/13 08:29:35;;;;;;;0.50;0.50;;;28.80;55.70;;;;;;5031710;28;20087;-77
2021/08/13 08:32:01;;;;;;;0.40;0.40;;;28.60;55.60;;;;;;5031249;28;20117;-75
2021/08/13 08:34:26;;;;;;;0.40;0.40;;;28.70;55.20;;;;;;5014076;28;20117;-74
2021/08/13 08:36:52;;;;;;;0.60;0.60;;;28.90;55.40;;;;;;5013963;28;20029;-77
2021/08/13 08:39:18;;;;;;;0.60;0.60;;;29.00;55.90;;;;;;5031107;28;20056;-78
2021/08/13 08:41:44;;;;;;;0.93;0.85;;;29.20;55.40;;;;;;5031160;28;20492;-77
2021/08/13 08:44:10;;;;;;;8.77;1.38;;;29.00;54.10;;;;;;5013502;28;20025;-75
2021/08/13 08:46:37;;;;;;;0.68;0.68;;;28.90;53.00;;;;;;5030737;28;20041;-79
2021/08/13 08:49:04;;;;;;;1.02;0.93;;;29.10;53.20;;;;;;5031588;28;20369;-81
2021/08/13 08:51:30;;;;;;;0.85;0.85;;;29.00;52.90;;;;;;5031282;28;20018;-73
2021/08/13 08:53:57;;;;;;;0.40;0.40;;;29.10;53.70;;;;;;5031431;28;20029;-77
2021/08/13 08:56:25;;;;;;;0.50;0.50;;;29.10;53.50;;;;;;5013463;28;20474;-77
2021/08/13 08:58:51;;;;;;;0.47;0.47;;;29.20;53.00;;;;;;5031138;28;20041;-77
2021/08/13 09:01:17;;;;;;;0.30;0.30;;;29.30;53.80;;;;;;5031247;28;20476;-76
2021/08/13 09:03:44;;;;;;;1.00;1.00;;;29.60;53.00;;;;;;5031051;28;20512;-79
2021/08/13 09:06:11;;;;;;;1.40;0.88;;;29.90;52.90;;;;;;5013675;28;20048;-79
2021/08/13 09:08:38;;;;;;;0.47;0.47;;;30.10;52.30;;;;;;5030849;28;20096;-79
2021/08/13 09:11:04;;;;;;;0.50;0.50;;;30.10;53.00;;;;;;5031027;28;20041;-78
2021/08/13 09:13:32;;;;;;;0.90;0.80;;;30.40;51.90;;;;;;5030783;28;20029;-79
2021/08/13 09:16:10;;;;;;;0.40;0.40;;;30.50;51.10;;;;;;5030864;28;20018;-77
2021/08/13 09:18:35;;;;;;;0.73;0.65;;;30.60;50.30;;;;;;5030815;28;20026;-78
2021/08/13 09:21:01;;;;;;;0.68;0.52;;;30.80;49.30;;;;;;5030909;28;20049;-79
2021/08/13 09:23:31;;;;;;;1.95;1.35;;;30.90;49.00;;;;;;5030952;28;20060;-77
2021/08/13 09:25:58;;;;;;;;;;;31.10;49.70;;;;;;5031521;28;20030;-77
2021/08/13 09:28:48;;;;;;;0.73;0.73;;;31.40;50.20;;;;;;5031311;28;19909;-78
2021/08/13 09:31:16;;;;;;;0.95;0.82;;;31.40;50.40;;;;;;5031171;28;20026;-78
2021/08/13 09:33:45;;;;;;;0.80;0.70;;;31.30;50.50;;;;;;5031824;28;20041;-76
2021/08/13 09:36:12;;;;;;;0.30;0.30;;;31.50;51.00;;;;;;5034823;28;20037;-79
2021/08/13 09:38:38;;;;;;;1.23;0.77;;;31.60;50.40;;;;;;5035021;28;20428;-78
2021/08/13 09:41:10;;;;;;;0.40;0.40;;;31.80;50.10;;;;;;5034840;28;20478;-79
2021/08/13 09:43:55;;;;;;;0.43;0.40;;;32.00;49.00;;;;;;5034258;28;20355;-78
2021/08/13 09:46:21;;;;;;;0.77;0.77;;;32.10;47.20;;;;;;5034937;28;20021;-79
2021/08/13 09:48:47;;;;;;;0.43;0.43;;;31.50;48.40;;;;;;5034535;28;20072;-79
2021/08/13 09:51:34;;;;;;;1.73;1.60;;;31.80;48.60;;;;;;5034330;28;20029;-78
2021/08/13 09:54:02;;;;;;;1.13;0.73;;;31.70;47.90;;;;;;5034390;28;20100;-76
2021/08/13 09:56:33;;;;;;;0.50;0.50;;;31.60;47.90;;;;;;5034195;28;20097;-78
2021/08/13 09:59:13;;;;;;;0.40;0.40;;;31.50;47.80;;;;;;5034490;28;20025;-77
2021/08/13 10:01:46;;;;;;;0.30;0.30;;;32.00;47.80;;;;;;5033698;28;20041;-76
2021/08/13 10:04:13;;;;;;;0.50;0.50;;;32.40;47.30;;;;;;5034768;28;20026;-78
2021/08/13 10:06:40;;;;;;;0.45;0.45;;;32.20;46.40;;;;;;5033750;28;20035;-77
2021/08/13 10:09:19;;;;;;;0.28;0.28;;;31.80;46.20;;;;;;5034300;28;20032;-78
2021/08/13 10:11:55;;;;;;;0.20;0.20;;;31.80;44.70;;;;;;5033286;28;20412;-79
2021/08/13 10:14:34;;;;;;;0.40;0.40;;;32.10;47.10;;;;;;5033930;28;20081;-78
2021/08/13 10:17:11;;;;;;;0.30;0.30;;;32.50;45.10;;;;;;5033710;28;20025;-78
2021/08/13 10:19:48;;;;;;;0.50;0.50;;;32.70;46.60;;;;;;5034262;28;20090;-79
2021/08/13 10:22:16;;;;;;;3.53;0.50;;;32.90;45.40;;;;;;5033520;28;20037;-78
2021/08/13 10:24:45;;;;;;;0.38;0.38;;;32.90;46.80;;;;;;5034051;28;20032;-78
2021/08/13 10:27:13;;;;;;;0.30;0.30;;;32.50;45.70;;;;;;5033466;28;20028;-79
2021/08/13 10:29:39;;;;;;;0.57;0.57;;;32.20;45.70;;;;;;5033465;28;20033;-77
2021/08/13 10:32:05;;;;;;;0.43;0.43;;;32.60;46.00;;;;;;5033351;28;20044;-80
2021/08/13 10:34:31;;;;;;;0.43;0.35;;;33.10;45.70;;;;;;5034067;28;20025;-77
2021/08/13 10:36:58;;;;;;;0.45;0.45;;;33.20;44.30;;;;;;5033489;28;20033;-77
2021/08/13 10:39:26;;;;;;;0.55;0.55;;;32.90;44.40;;;;;;5034127;28;20148;-80
2021/08/13 10:41:59;;;;;;;0.28;0.28;;;32.70;44.20;;;;;;5033400;28;20029;-79
2021/08/13 10:44:31;;;;;;;0.20;0.20;;;32.90;44.20;;;;;;5032910;28;20054;-79
2021/08/13 10:47:01;;;;;;;0.20;0.20;;;33.30;43.20;;;;;;5033227;28;20493;-76
2021/08/13 10:49:27;;;;;;;0.35;0.30;;;33.00;43.80;;;;;;5033708;28;20120;-79
2021/08/13 10:52:07;;;;;;;0.80;0.80;;;33.00;43.20;;;;;;5033200;28;20036;-79
2021/08/13 10:54:41;;;;;;;1.23;0.65;;;33.30;43.00;;;;;;5033490;28;20100;-79
2021/08/13 10:57:09;;;;;;;0.22;0.22;;;32.80;43.50;;;;;;5032962;28;20052;-79
2021/08/13 10:59:41;;;;;;;0.32;0.28;;;32.80;43.60;;;;;;5033132;28;20087;-78
2021/08/13 11:02:13;;;;;;;0.75;0.73;;;32.80;43.20;;;;;;5032796;28;20029;-79
2021/08/13 11:04:43;;;;;;;2.15;0.80;;;32.60;43.00;;;;;;5033282;28;20438;-78
2021/08/13 11:07:10;;;;;;;0.85;0.85;;;32.60;43.50;;;;;;5032840;28;20060;-78
2021/08/13 11:09:37;;;;;;;0.30;0.30;;;32.90;44.50;;;;;;5032986;28;20057;-79
2021/08/13 11:12:07;;;;;;;1.30;1.17;;;33.40;43.50;;;;;;5032978;28;20502;-78
2021/08/13 11:14:49;;;;;;;0.32;0.30;;;33.80;42.50;;;;;;5032803;28;20088;-78
2021/08/13 11:17:42;;;;;;;0.30;0.30;;;33.10;41.30;;;;;;5032361;28;20053;-76
2021/08/13 11:20:12;;;;;;;1.02;0.73;;;32.90;42.10;;;;;;5032416;28;20163;-79
2021/08/13 11:22:39;;;;;;;0.65;0.50;;;33.00;42.80;;;;;;5032458;28;20033;-79
2021/08/13 11:25:10;;;;;;;0.65;0.38;;;33.10;43.30;;;;;;5032861;28;20423;-78
2021/08/13 11:27:37;;;;;;;0.50;0.50;;;32.90;43.00;;;;;;5032158;28;20030;-78
2021/08/13 11:30:05;;;;;;;0.20;0.20;;;33.20;43.20;;;;;;5015031;28;20059;-78
2021/08/13 11:32:36;;;;;;;0.30;0.30;;;33.60;42.20;;;;;;5032257;28;20029;-77
2021/08/13 11:35:08;;;;;;;0.22;0.22;;;33.40;41.90;;;;;;5032332;28;20057;-78
2021/08/13 11:37:44;;;;;;;0.43;0.43;;;33.00;42.70;;;;;;5032282;28;20026;-79
2021/08/13 11:40:13;;;;;;;0.73;0.50;;;33.10;43.30;;;;;;5014246;28;20065;-78
2021/08/13 11:42:49;;;;;;;0.40;0.40;;;33.40;42.10;;;;;;5032132;28;20090;-76
2021/08/13 11:45:16;;;;;;;1.17;1.08;;;33.10;42.50;;;;;;5032475;28;20033;-78
2021/08/13 11:47:48;;;;;;;0.90;0.50;;;33.00;42.30;;;;;;5031938;28;20021;-78
2021/08/13 11:50:14;;;;;;;0.90;0.70;;;33.10;42.50;;;;;;5032085;28;20029;-79
2021/08/13 11:52:47;;;;;;;0.57;0.50;;;33.50;42.30;;;;;;5031747;28;20112;-77
2021/08/13 11:55:16;;;;;;;0.30;0.30;;;33.50;39.70;;;;;;5032106;28;20037;-77
2021/08/13 11:57:42;;;;;;;0.93;0.77;;;33.10;40.70;;;;;;5031006;28;20109;-78
2021/08/13 12:00:22;;;;;;;1.15;1.05;;;33.10;40.10;;;;;;5031860;28;20120;-77
2021/08/13 12:02:48;;;;;;;0.38;0.30;;;33.50;40.80;;;;;;5031726;28;20083;-76
2021/08/13 12:05:14;;;;;;;0.28;0.28;;;34.00;40.10;;;;;;5031810;28;20083;-77
2021/08/13 12:07:41;;;;;;;0.30;0.30;;;34.20;39.60;;;;;;5031461;28;20017;-76
2021/08/13 12:10:14;;;;;;;0.88;0.82;;;34.00;40.70;;;;;;5031707;28;20037;-78
2021/08/13 12:12:44;;;;;;;0.40;0.40;;;33.90;42.00;;;;;;5031582;28;20033;-76
2021/08/13 12:15:10;;;;;;;;;;;34.20;42.00;;;;;;5031796;28;20396;-75
2021/08/13 12:17:36;;;;;;;0.30;0.30;;;34.90;42.60;;;;;;5031996;28;20328;-75
2021/08/13 12:20:06;;;;;;;0.93;0.30;;;35.30;42.50;;;;;;5031575;28;20043;-78
2021/08/13 12:22:40;;;;;;;0.45;0.38;;;35.50;42.10;;;;;;5013603;28;20026;-80
2021/08/13 12:25:09;;;;;;;0.25;0.25;;;35.00;41.20;;;;;;5031592;28;20057;-77
2021/08/13 12:27:38;;;;;;;0.47;0.43;;;34.70;42.70;;;;;;5031160;28;20030;-78
2021/08/13 12:30:13;;;;;;;0.32;0.32;;;34.40;42.30;;;;;;5031539;28;20029;-77
2021/08/13 12:32:41;;;;;;;3.00;0.65;;;34.20;42.70;;;;;;5031354;28;20025;-79
2021/08/13 12:35:12;;;;;;;0.40;0.40;;;33.90;42.70;;;;;;5031102;28;20112;-79
2021/08/13 12:37:39;;;;;;;0.35;0.32;;;33.70;42.90;;;;;;5031437;28;20044;-77
2021/08/13 12:40:08;;;;;;;4.90;1.33;;;33.90;42.30;;;;;;5031122;28;20346;-78
2021/08/13 12:42:35;;;;;;;0.53;0.50;;;34.20;42.70;;;;;;5013801;28;20108;-77
2021/08/13 12:45:08;;;;;;;2.20;0.52;;;34.10;42.30;;;;;;5031356;28;20473;-78
2021/08/13 12:47:34;;;;;;;0.38;0.38;;;34.20;42.10;;;;;;5031275;28;20025;-77
2021/08/13 12:50:01;;;;;;;0.35;0.35;;;34.60;42.80;;;;;;5031108;28;20022;-78
2021/08/13 12:52:27;;;;;;;0.30;0.30;;;34.40;42.10;;;;;;5031168;28;20034;-79